sensor_id;sensor_type;location;lat;lon;timestamp;P1;durP1;ratioP1;P2;durP2;ratioP2
82396;SDS011;72034;51.426;7.534;2023-08-06T04:01:02;5.60;;;4.97;;
82396;SDS011;72034;51.426;7.534;2023-08-06T04:03:28;7.90;;;4.90;;
82396;SDS011;72034;51.426;7.534;2023-08-06T04:05:54;7.38;;;5.57;;
82396;SDS011;72034;51.426;7.534;2023-08-06T04:08:19;7.82;;;5.13;;
82396;SDS011;72034;51.426;7.534;2023-08-06T04:10:44;7.88;;;4.35;;
82396;SDS011;72034;51.426;7.534;2023-08-06T04:13:10;6.85;;;4.78;;
82396;SDS011;72034;51.426;7.534;2023-08-06T04:15:35;5.78;;;4.50;;
82396;SDS011;72034;51.426;7.534;2023-08-06T04:18:00;6.50;;;5.07;;
82396;SDS011;72034;51.426;7.534;2023-08-06T04:20:26;5.90;;;4.40;;
82396;SDS011;72034;51.426;7.534;2023-08-06T04:22:53;6.47;;;4.32;;
82396;SDS011;72034;51.426;7.534;2023-08-06T04:25:19;6.80;;;4.53;;
82396;SDS011;72034;51.426;7.534;2023-08-06T04:27:46;4.80;;;4.40;;
82396;SDS011;72034;51.426;7.534;2023-08-06T04:30:12;7.82;;;4.65;;
82396;SDS011;72034;51.426;7.534;2023-08-06T04:32:37;7.93;;;4.47;;
82396;SDS011;72034;51.426;7.534;2023-08-06T04:35:03;5.55;;;4.97;;
82396;SDS011;72034;51.426;7.534;2023-08-06T04:37:28;9.50;;;4.00;;
82396;SDS011;72034;51.426;7.534;2023-08-06T04:39:53;7.25;;;4.88;;
82396;SDS011;72034;51.426;7.534;2023-08-06T04:42:19;8.10;;;4.45;;
82396;SDS011;72034;51.426;7.534;2023-08-06T04:44:44;5.93;;;4.38;;
82396;SDS011;72034;51.426;7.534;2023-08-06T04:47:09;4.68;;;4.03;;
82396;SDS011;72034;51.426;7.534;2023-08-06T04:49:34;8.05;;;4.88;;
82396;SDS011;72034;51.426;7.534;2023-08-06T04:52:00;4.95;;;3.95;;
82396;SDS011;72034;51.426;7.534;2023-08-06T04:54:25;4.47;;;4.00;;
82396;SDS011;72034;51.426;7.534;2023-08-06T04:56:50;5.63;;;5.07;;
82396;SDS011;72034;51.426;7.534;2023-08-06T04:59:16;4.72;;;4.22;;
82396;SDS011;72034;51.426;7.534;2023-08-06T05:01:41;5.43;;;4.18;;
82396;SDS011;72034;51.426;7.534;2023-08-06T05:04:06;7.97;;;4.43;;
82396;SDS011;72034;51.426;7.534;2023-08-06T05:06:31;4.35;;;3.92;;
82396;SDS011;72034;51.426;7.534;2023-08-06T05:08:57;5.25;;;4.78;;
82396;SDS011;72034;51.426;7.534;2023-08-06T05:11:22;5.90;;;4.30;;
82396;SDS011;72034;51.426;7.534;2023-08-06T05:13:49;5.97;;;5.05;;
82396;SDS011;72034;51.426;7.534;2023-08-06T05:16:14;6.22;;;4.72;;
82396;SDS011;72034;51.426;7.534;2023-08-06T05:18:39;6.38;;;5.25;;
82396;SDS011;72034;51.426;7.534;2023-08-06T05:21:05;7.15;;;5.15;;
82396;SDS011;72034;51.426;7.534;2023-08-06T05:23:31;5.97;;;5.47;;
82396;SDS011;72034;51.426;7.534;2023-08-06T05:25:56;7.15;;;5.30;;
82396;SDS011;72034;51.426;7.534;2023-08-06T05:28:21;5.25;;;4.78;;
82396;SDS011;72034;51.426;7.534;2023-08-06T05:30:47;5.72;;;4.93;;
82396;SDS011;72034;51.426;7.534;2023-08-06T05:33:12;6.10;;;5.40;;
82396;SDS011;72034;51.426;7.534;2023-08-06T05:35:37;5.75;;;5.15;;
82396;SDS011;72034;51.426;7.534;2023-08-06T05:38:02;5.78;;;4.75;;
82396;SDS011;72034;51.426;7.534;2023-08-06T05:40:28;8.63;;;5.68;;
82396;SDS011;72034;51.426;7.534;2023-08-06T05:42:53;6.05;;;4.57;;
82396;SDS011;72034;51.426;7.534;2023-08-06T05:45:19;5.32;;;4.82;;
82396;SDS011;72034;51.426;7.534;2023-08-06T05:47:44;5.57;;;4.07;;
82396;SDS011;72034;51.426;7.534;2023-08-06T05:50:10;5.63;;;4.35;;
82396;SDS011;72034;51.426;7.534;2023-08-06T05:52:35;5.90;;;4.10;;
82396;SDS011;72034;51.426;7.534;2023-08-06T05:55:00;5.80;;;4.05;;
82396;SDS011;72034;51.426;7.534;2023-08-06T05:57:25;4.60;;;4.03;;
82396;SDS011;72034;51.426;7.534;2023-08-06T05:59:51;5.85;;;3.78;;
82396;SDS011;72034;51.426;7.534;2023-08-06T06:02:16;5.53;;;3.60;;
82396;SDS011;72034;51.426;7.534;2023-08-06T06:04:43;6.13;;;3.58;;
82396;SDS011;72034;51.426;7.534;2023-08-06T06:07:08;4.90;;;4.13;;
82396;SDS011;72034;51.426;7.534;2023-08-06T06:09:34;6.15;;;3.70;;
82396;SDS011;72034;51.426;7.534;2023-08-06T06:11:59;4.63;;;3.35;;
82396;SDS011;72034;51.426;7.534;2023-08-06T06:14:24;3.53;;;3.22;;
82396;SDS011;72034;51.426;7.534;2023-08-06T06:16:50;5.72;;;3.97;;
82396;SDS011;72034;51.426;7.534;2023-08-06T06:19:16;6.05;;;3.63;;
82396;SDS011;72034;51.426;7.534;2023-08-06T06:21:46;4.15;;;3.65;;
82396;SDS011;72034;51.426;7.534;2023-08-06T06:24:14;6.75;;;3.80;;
82396;SDS011;72034;51.426;7.534;2023-08-06T06:26:40;3.95;;;3.55;;
82396;SDS011;72034;51.426;7.534;2023-08-06T06:29:05;7.10;;;4.05;;
82396;SDS011;72034;51.426;7.534;2023-08-06T06:31:31;10.40;;;4.00;;
82396;SDS011;72034;51.426;7.534;2023-08-06T06:33:56;4.22;;;3.83;;
82396;SDS011;72034;51.426;7.534;2023-08-06T06:36:21;4.13;;;3.33;;
82396;SDS011;72034;51.426;7.534;2023-08-06T06:38:48;4.55;;;3.70;;
82396;SDS011;72034;51.426;7.534;2023-08-06T06:41:14;5.60;;;3.13;;
82396;SDS011;72034;51.426;7.534;2023-08-06T06:43:40;3.67;;;2.95;;
82396;SDS011;72034;51.426;7.534;2023-08-06T06:46:05;4.05;;;3.17;;
82396;SDS011;72034;51.426;7.534;2023-08-06T06:48:32;4.95;;;3.72;;
82396;SDS011;72034;51.426;7.534;2023-08-06T06:50:58;4.97;;;3.22;;
82396;SDS011;72034;51.426;7.534;2023-08-06T06:53:24;5.43;;;2.75;;
82396;SDS011;72034;51.426;7.534;2023-08-06T06:55:55;6.63;;;2.92;;
82396;SDS011;72034;51.426;7.534;2023-08-06T06:58:21;6.13;;;3.08;;
82396;SDS011;72034;51.426;7.534;2023-08-06T07:00:47;4.28;;;2.67;;
82396;SDS011;72034;51.426;7.534;2023-08-06T07:03:14;4.50;;;2.70;;
82396;SDS011;72034;51.426;7.534;2023-08-06T07:05:40;3.22;;;2.33;;
82396;SDS011;72034;51.426;7.534;2023-08-06T07:08:05;2.95;;;2.33;;
82396;SDS011;72034;51.426;7.534;2023-08-06T07:10:31;4.68;;;2.83;;
82396;SDS011;72034;51.426;7.534;2023-08-06T07:12:56;3.17;;;2.65;;
82396;SDS011;72034;51.426;7.534;2023-08-06T07:15:21;3.88;;;2.72;;
82396;SDS011;72034;51.426;7.534;2023-08-06T07:17:47;3.20;;;2.30;;
82396;SDS011;72034;51.426;7.534;2023-08-06T07:20:12;3.05;;;2.45;;
82396;SDS011;72034;51.426;7.534;2023-08-06T07:22:38;4.65;;;2.40;;
82396;SDS011;72034;51.426;7.534;2023-08-06T07:25:03;4.65;;;2.33;;
82396;SDS011;72034;51.426;7.534;2023-08-06T07:27:29;3.83;;;2.28;;
82396;SDS011;72034;51.426;7.534;2023-08-06T07:29:54;2.97;;;2.53;;
82396;SDS011;72034;51.426;7.534;2023-08-06T07:32:19;3.67;;;2.30;;
82396;SDS011;72034;51.426;7.534;2023-08-06T07:34:45;2.50;;;2.28;;
82396;SDS011;72034;51.426;7.534;2023-08-06T07:37:10;3.22;;;1.98;;
82396;SDS011;72034;51.426;7.534;2023-08-06T07:39:35;3.83;;;2.55;;
82396;SDS011;72034;51.426;7.534;2023-08-06T07:42:03;3.85;;;2.58;;
82396;SDS011;72034;51.426;7.534;2023-08-06T07:44:30;4.15;;;2.53;;
82396;SDS011;72034;51.426;7.534;2023-08-06T07:46:56;4.80;;;2.50;;
82396;SDS011;72034;51.426;7.534;2023-08-06T07:49:22;5.07;;;2.10;;
82396;SDS011;72034;51.426;7.534;2023-08-06T07:51:47;4.47;;;2.30;;
82396;SDS011;72034;51.426;7.534;2023-08-06T07:54:12;4.30;;;2.60;;
82396;SDS011;72034;51.426;7.534;2023-08-06T07:56:38;7.47;;;2.80;;
82396;SDS011;72034;51.426;7.534;2023-08-06T07:59:03;5.28;;;2.55;;
82396;SDS011;72034;51.426;7.534;2023-08-06T08:01:28;4.93;;;2.28;;
82396;SDS011;72034;51.426;7.534;2023-08-06T08:03:53;3.65;;;2.03;;
82396;SDS011;72034;51.426;7.534;2023-08-06T08:06:19;4.65;;;2.42;;
82396;SDS011;72034;51.426;7.534;2023-08-06T08:08:44;5.97;;;3.33;;
82396;SDS011;72034;51.426;7.534;2023-08-06T08:11:09;6.75;;;3.53;;
82396;SDS011;72034;51.426;7.534;2023-08-06T08:13:35;3.25;;;2.20;;
82396;SDS011;72034;51.426;7.534;2023-08-06T08:16:00;4.25;;;2.35;;
82396;SDS011;72034;51.426;7.534;2023-08-06T08:18:26;4.25;;;2.55;;
82396;SDS011;72034;51.426;7.534;2023-08-06T08:20:51;4.32;;;2.90;;
82396;SDS011;72034;51.426;7.534;2023-08-06T08:23:16;4.28;;;2.75;;
82396;SDS011;72034;51.426;7.534;2023-08-06T08:25:41;4.50;;;3.03;;
82396;SDS011;72034;51.426;7.534;2023-08-06T08:28:07;7.13;;;3.20;;
82396;SDS011;72034;51.426;7.534;2023-08-06T08:30:32;4.50;;;3.10;;
82396;SDS011;72034;51.426;7.534;2023-08-06T08:32:57;4.60;;;2.78;;
82396;SDS011;72034;51.426;7.534;2023-08-06T08:35:23;5.32;;;3.20;;
82396;SDS011;72034;51.426;7.534;2023-08-06T08:37:48;5.75;;;3.00;;
82396;SDS011;72034;51.426;7.534;2023-08-06T08:40:14;3.65;;;3.25;;
82396;SDS011;72034;51.426;7.534;2023-08-06T08:42:39;4.97;;;2.83;;
82396;SDS011;72034;51.426;7.534;2023-08-06T08:45:06;4.05;;;2.60;;
82396;SDS011;72034;51.426;7.534;2023-08-06T08:47:37;6.15;;;2.60;;
82396;SDS011;72034;51.426;7.534;2023-08-06T08:50:03;5.13;;;3.20;;
82396;SDS011;72034;51.426;7.534;2023-08-06T08:52:30;3.78;;;2.90;;
82396;SDS011;72034;51.426;7.534;2023-08-06T08:54:56;3.53;;;2.60;;
82396;SDS011;72034;51.426;7.534;2023-08-06T08:57:21;4.65;;;2.83;;
82396;SDS011;72034;51.426;7.534;2023-08-06T08:59:46;4.00;;;2.78;;
82396;SDS011;72034;51.426;7.534;2023-08-06T09:02:12;4.75;;;2.97;;
82396;SDS011;72034;51.426;7.534;2023-08-06T09:04:37;3.83;;;2.78;;
82396;SDS011;72034;51.426;7.534;2023-08-06T09:07:03;3.47;;;2.78;;
82396;SDS011;72034;51.426;7.534;2023-08-06T09:09:33;6.05;;;3.28;;
82396;SDS011;72034;51.426;7.534;2023-08-06T09:12:02;5.47;;;2.83;;
82396;SDS011;72034;51.426;7.534;2023-08-06T09:14:31;5.20;;;2.58;;
82396;SDS011;72034;51.426;7.534;2023-08-06T09:16:57;4.68;;;2.78;;
82396;SDS011;72034;51.426;7.534;2023-08-06T09:19:22;5.40;;;2.38;;
82396;SDS011;72034;51.426;7.534;2023-08-06T09:21:50;4.80;;;2.33;;
82396;SDS011;72034;51.426;7.534;2023-08-06T09:24:16;4.95;;;2.50;;
82396;SDS011;72034;51.426;7.534;2023-08-06T09:26:43;4.22;;;2.63;;
82396;SDS011;72034;51.426;7.534;2023-08-06T09:29:09;3.60;;;2.70;;
82396;SDS011;72034;51.426;7.534;2023-08-06T09:34:10;3.72;;;3.08;;
82396;SDS011;72034;51.426;7.534;2023-08-06T09:36:39;4.60;;;3.10;;
82396;SDS011;72034;51.426;7.534;2023-08-06T09:39:12;4.95;;;3.53;;
82396;SDS011;72034;51.426;7.534;2023-08-06T09:41:38;4.03;;;3.42;;
82396;SDS011;72034;51.426;7.534;2023-08-06T09:44:04;5.68;;;3.17;;
82396;SDS011;72034;51.426;7.534;2023-08-06T09:46:30;5.07;;;2.97;;
82396;SDS011;72034;51.426;7.534;2023-08-06T09:48:57;5.13;;;3.30;;
82396;SDS011;72034;51.426;7.534;2023-08-06T09:51:22;3.88;;;2.60;;
82396;SDS011;72034;51.426;7.534;2023-08-06T09:53:47;3.55;;;2.65;;
82396;SDS011;72034;51.426;7.534;2023-08-06T09:56:13;3.50;;;2.42;;
82396;SDS011;72034;51.426;7.534;2023-08-06T09:58:39;3.25;;;2.10;;
82396;SDS011;72034;51.426;7.534;2023-08-06T10:01:05;3.05;;;2.08;;
82396;SDS011;72034;51.426;7.534;2023-08-06T10:03:30;4.00;;;2.60;;
82396;SDS011;72034;51.426;7.534;2023-08-06T10:05:57;3.08;;;2.22;;
82396;SDS011;72034;51.426;7.534;2023-08-06T10:08:23;3.38;;;2.05;;
82396;SDS011;72034;51.426;7.534;2023-08-06T10:10:48;2.08;;;1.60;;
82396;SDS011;72034;51.426;7.534;2023-08-06T10:13:13;2.63;;;1.88;;
82396;SDS011;72034;51.426;7.534;2023-08-06T10:15:39;2.15;;;1.90;;
82396;SDS011;72034;51.426;7.534;2023-08-06T10:18:05;2.50;;;1.80;;
82396;SDS011;72034;51.426;7.534;2023-08-06T10:20:34;3.53;;;2.10;;
82396;SDS011;72034;51.426;7.534;2023-08-06T10:23:00;3.08;;;2.20;;
82396;SDS011;72034;51.426;7.534;2023-08-06T10:25:36;4.90;;;2.65;;
82396;SDS011;72034;51.426;7.534;2023-08-06T10:28:07;3.75;;;2.42;;
82396;SDS011;72034;51.426;7.534;2023-08-06T10:30:34;3.53;;;2.53;;
82396;SDS011;72034;51.426;7.534;2023-08-06T10:33:06;3.30;;;2.90;;
82396;SDS011;72034;51.426;7.534;2023-08-06T10:35:35;5.53;;;3.05;;
82396;SDS011;72034;51.426;7.534;2023-08-06T10:38:07;3.35;;;2.97;;
82396;SDS011;72034;51.426;7.534;2023-08-06T10:40:32;5.40;;;3.97;;
82396;SDS011;72034;51.426;7.534;2023-08-06T10:42:58;5.90;;;4.40;;
82396;SDS011;72034;51.426;7.534;2023-08-06T10:45:27;5.90;;;4.07;;
82396;SDS011;72034;51.426;7.534;2023-08-06T10:47:56;4.88;;;4.40;;
82396;SDS011;72034;51.426;7.534;2023-08-06T10:50:24;8.80;;;5.85;;
82396;SDS011;72034;51.426;7.534;2023-08-06T10:52:50;7.32;;;5.85;;
82396;SDS011;72034;51.426;7.534;2023-08-06T10:55:49;4.13;;;3.80;;
82396;SDS011;72034;51.426;7.534;2023-08-06T10:58:07;3.20;;;2.80;;
82396;SDS011;72034;51.426;7.534;2023-08-06T11:00:32;3.75;;;3.10;;
82396;SDS011;72034;51.426;7.534;2023-08-06T11:02:58;5.57;;;4.05;;
82396;SDS011;72034;51.426;7.534;2023-08-06T11:05:23;4.80;;;4.15;;
82396;SDS011;72034;51.426;7.534;2023-08-06T11:07:48;5.43;;;4.93;;
82396;SDS011;72034;51.426;7.534;2023-08-06T11:10:14;5.40;;;4.88;;
82396;SDS011;72034;51.426;7.534;2023-08-06T11:12:39;5.22;;;4.57;;
82396;SDS011;72034;51.426;7.534;2023-08-06T11:15:05;5.28;;;4.78;;
82396;SDS011;72034;51.426;7.534;2023-08-06T11:17:32;5.18;;;3.95;;
82396;SDS011;72034;51.426;7.534;2023-08-06T11:20:04;4.82;;;3.92;;
82396;SDS011;72034;51.426;7.534;2023-08-06T11:22:30;4.43;;;4.03;;
82396;SDS011;72034;51.426;7.534;2023-08-06T11:24:55;5.00;;;3.92;;
82396;SDS011;72034;51.426;7.534;2023-08-06T11:27:21;6.07;;;3.88;;
82396;SDS011;72034;51.426;7.534;2023-08-06T11:29:46;3.80;;;2.90;;
82396;SDS011;72034;51.426;7.534;2023-08-06T11:32:11;4.57;;;3.03;;
82396;SDS011;72034;51.426;7.534;2023-08-06T11:34:37;4.15;;;3.17;;
82396;SDS011;72034;51.426;7.534;2023-08-06T11:37:03;4.22;;;3.15;;
82396;SDS011;72034;51.426;7.534;2023-08-06T11:39:35;4.05;;;2.90;;
82396;SDS011;72034;51.426;7.534;2023-08-06T11:42:07;2.72;;;2.25;;
82396;SDS011;72034;51.426;7.534;2023-08-06T11:44:35;4.05;;;2.55;;
82396;SDS011;72034;51.426;7.534;2023-08-06T11:47:01;3.45;;;2.20;;
82396;SDS011;72034;51.426;7.534;2023-08-06T11:52:14;2.55;;;2.20;;
82396;SDS011;72034;51.426;7.534;2023-08-06T11:54:45;2.30;;;2.08;;
82396;SDS011;72034;51.426;7.534;2023-08-06T11:57:24;3.08;;;2.30;;
82396;SDS011;72034;51.426;7.534;2023-08-06T11:59:49;3.00;;;2.30;;
82396;SDS011;72034;51.426;7.534;2023-08-06T12:02:15;3.42;;;2.50;;
82396;SDS011;72034;51.426;7.534;2023-08-06T12:04:59;2.90;;;2.20;;
82396;SDS011;72034;51.426;7.534;2023-08-06T12:07:26;2.90;;;2.30;;
82396;SDS011;72034;51.426;7.534;2023-08-06T12:09:55;3.33;;;3.00;;
82396;SDS011;72034;51.426;7.534;2023-08-06T12:12:21;3.05;;;2.08;;
82396;SDS011;72034;51.426;7.534;2023-08-06T12:14:47;4.20;;;2.30;;
82396;SDS011;72034;51.426;7.534;2023-08-06T12:17:13;3.67;;;2.40;;
82396;SDS011;72034;51.426;7.534;2023-08-06T12:19:38;4.28;;;2.08;;
82396;SDS011;72034;51.426;7.534;2023-08-06T12:22:03;3.65;;;2.42;;
82396;SDS011;72034;51.426;7.534;2023-08-06T12:24:29;3.75;;;2.80;;
82396;SDS011;72034;51.426;7.534;2023-08-06T12:26:56;4.90;;;4.45;;
82396;SDS011;72034;51.426;7.534;2023-08-06T12:29:26;5.50;;;4.07;;
82396;SDS011;72034;51.426;7.534;2023-08-06T12:31:53;4.68;;;4.28;;
82396;SDS011;72034;51.426;7.534;2023-08-06T12:34:18;6.32;;;4.50;;
82396;SDS011;72034;51.426;7.534;2023-08-06T12:36:43;7.10;;;4.47;;
82396;SDS011;72034;51.426;7.534;2023-08-06T12:39:09;6.97;;;4.95;;
82396;SDS011;72034;51.426;7.534;2023-08-06T12:41:34;7.00;;;5.13;;
82396;SDS011;72034;51.426;7.534;2023-08-06T12:43:59;5.70;;;4.40;;
82396;SDS011;72034;51.426;7.534;2023-08-06T12:46:24;5.70;;;4.70;;
82396;SDS011;72034;51.426;7.534;2023-08-06T12:48:50;5.35;;;4.45;;
82396;SDS011;72034;51.426;7.534;2023-08-06T12:51:15;5.00;;;4.60;;
82396;SDS011;72034;51.426;7.534;2023-08-06T12:53:41;5.07;;;4.30;;
82396;SDS011;72034;51.426;7.534;2023-08-06T12:56:06;5.20;;;4.75;;
82396;SDS011;72034;51.426;7.534;2023-08-06T12:58:31;5.30;;;4.88;;
82396;SDS011;72034;51.426;7.534;2023-08-06T13:00:57;5.38;;;4.97;;
82396;SDS011;72034;51.426;7.534;2023-08-06T13:03:22;5.18;;;4.78;;
82396;SDS011;72034;51.426;7.534;2023-08-06T13:05:47;5.88;;;5.38;;
82396;SDS011;72034;51.426;7.534;2023-08-06T13:08:12;5.22;;;4.70;;
82396;SDS011;72034;51.426;7.534;2023-08-06T13:10:38;4.43;;;4.13;;
82396;SDS011;72034;51.426;7.534;2023-08-06T13:13:03;4.30;;;4.00;;
82396;SDS011;72034;51.426;7.534;2023-08-06T13:15:29;4.70;;;4.28;;
82396;SDS011;72034;51.426;7.534;2023-08-06T13:17:54;3.47;;;3.28;;
82396;SDS011;72034;51.426;7.534;2023-08-06T13:20:19;3.97;;;2.67;;
82396;SDS011;72034;51.426;7.534;2023-08-06T13:22:45;3.03;;;2.38;;
82396;SDS011;72034;51.426;7.534;2023-08-06T13:25:11;4.93;;;2.50;;
82396;SDS011;72034;51.426;7.534;2023-08-06T13:27:39;1.65;;;1.55;;
82396;SDS011;72034;51.426;7.534;2023-08-06T13:30:04;2.13;;;1.40;;
82396;SDS011;72034;51.426;7.534;2023-08-06T13:32:30;1.30;;;1.17;;
82396;SDS011;72034;51.426;7.534;2023-08-06T13:34:57;1.55;;;1.40;;
82396;SDS011;72034;51.426;7.534;2023-08-06T13:37:22;1.50;;;1.25;;
82396;SDS011;72034;51.426;7.534;2023-08-06T13:39:48;1.58;;;0.95;;
82396;SDS011;72034;51.426;7.534;2023-08-06T13:42:13;1.52;;;1.25;;
82396;SDS011;72034;51.426;7.534;2023-08-06T13:44:38;1.63;;;1.23;;
82396;SDS011;72034;51.426;7.534;2023-08-06T13:47:04;2.58;;;0.90;;
82396;SDS011;72034;51.426;7.534;2023-08-06T13:49:29;1.13;;;1.00;;
82396;SDS011;72034;51.426;7.534;2023-08-06T13:51:54;1.35;;;1.00;;
82396;SDS011;72034;51.426;7.534;2023-08-06T13:54:20;1.08;;;0.77;;
82396;SDS011;72034;51.426;7.534;2023-08-06T13:56:46;1.38;;;0.80;;
82396;SDS011;72034;51.426;7.534;2023-08-06T13:59:11;1.02;;;0.80;;
82396;SDS011;72034;51.426;7.534;2023-08-06T14:01:39;1.40;;;0.90;;
82396;SDS011;72034;51.426;7.534;2023-08-06T14:04:04;1.33;;;0.90;;
82396;SDS011;72034;51.426;7.534;2023-08-06T14:06:29;1.08;;;0.98;;
82396;SDS011;72034;51.426;7.534;2023-08-06T14:08:56;1.00;;;1.00;;
82396;SDS011;72034;51.426;7.534;2023-08-06T14:11:21;3.03;;;0.85;;
82396;SDS011;72034;51.426;7.534;2023-08-06T14:13:47;2.58;;;0.80;;
82396;SDS011;72034;51.426;7.534;2023-08-06T14:16:12;0.60;;;0.60;;
82396;SDS011;72034;51.426;7.534;2023-08-06T14:18:37;0.65;;;0.65;;
82396;SDS011;72034;51.426;7.534;2023-08-06T14:21:03;0.70;;;0.70;;
82396;SDS011;72034;51.426;7.534;2023-08-06T14:23:28;1.73;;;1.10;;
82396;SDS011;72034;51.426;7.534;2023-08-06T14:25:54;1.90;;;1.00;;
82396;SDS011;72034;51.426;7.534;2023-08-06T14:28:19;1.30;;;1.05;;
82396;SDS011;72034;51.426;7.534;2023-08-06T14:30:44;1.17;;;1.08;;
82396;SDS011;72034;51.426;7.534;2023-08-06T14:33:09;1.48;;;1.38;;
82396;SDS011;72034;51.426;7.534;2023-08-06T14:35:35;1.70;;;1.30;;
82396;SDS011;72034;51.426;7.534;2023-08-06T14:38:00;2.10;;;1.25;;
82396;SDS011;72034;51.426;7.534;2023-08-06T14:40:25;1.42;;;1.33;;
82396;SDS011;72034;51.426;7.534;2023-08-06T14:42:53;1.45;;;1.35;;
82396;SDS011;72034;51.426;7.534;2023-08-06T14:45:18;1.60;;;1.50;;
82396;SDS011;72034;51.426;7.534;2023-08-06T14:47:44;2.05;;;1.90;;
82396;SDS011;72034;51.426;7.534;2023-08-06T14:50:09;2.05;;;1.85;;
82396;SDS011;72034;51.426;7.534;2023-08-06T14:52:34;3.17;;;1.90;;
82396;SDS011;72034;51.426;7.534;2023-08-06T14:55:00;1.42;;;1.33;;
82396;SDS011;72034;51.426;7.534;2023-08-06T14:57:25;1.75;;;1.63;;
82396;SDS011;72034;51.426;7.534;2023-08-06T14:59:53;2.10;;;1.90;;
82396;SDS011;72034;51.426;7.534;2023-08-06T15:02:20;2.03;;;1.70;;
82396;SDS011;72034;51.426;7.534;2023-08-06T15:04:46;2.13;;;1.80;;
82396;SDS011;72034;51.426;7.534;2023-08-06T15:07:12;3.03;;;2.20;;
82396;SDS011;72034;51.426;7.534;2023-08-06T15:09:37;2.40;;;2.20;;
82396;SDS011;72034;51.426;7.534;2023-08-06T15:12:02;3.10;;;2.20;;
82396;SDS011;72034;51.426;7.534;2023-08-06T15:14:28;2.45;;;2.20;;
82396;SDS011;72034;51.426;7.534;2023-08-06T15:16:53;2.40;;;2.05;;
82396;SDS011;72034;51.426;7.534;2023-08-06T15:19:21;3.17;;;2.55;;
82396;SDS011;72034;51.426;7.534;2023-08-06T15:21:47;3.33;;;2.55;;
82396;SDS011;72034;51.426;7.534;2023-08-06T15:24:12;3.15;;;2.80;;
82396;SDS011;72034;51.426;7.534;2023-08-06T15:26:38;5.28;;;2.50;;
82396;SDS011;72034;51.426;7.534;2023-08-06T15:29:03;3.05;;;2.63;;
82396;SDS011;72034;51.426;7.534;2023-08-06T15:31:35;3.10;;;2.80;;
82396;SDS011;72034;51.426;7.534;2023-08-06T15:34:01;3.50;;;2.45;;
82396;SDS011;72034;51.426;7.534;2023-08-06T15:36:28;3.63;;;2.55;;
82396;SDS011;72034;51.426;7.534;2023-08-06T15:38:53;3.17;;;2.75;;
82396;SDS011;72034;51.426;7.534;2023-08-06T15:41:19;6.10;;;2.92;;
82396;SDS011;72034;51.426;7.534;2023-08-06T15:43:44;3.75;;;2.92;;
82396;SDS011;72034;51.426;7.534;2023-08-06T15:46:09;5.95;;;3.50;;
82396;SDS011;72034;51.426;7.534;2023-08-06T15:48:35;3.30;;;2.97;;
82396;SDS011;72034;51.426;7.534;2023-08-06T15:51:00;4.80;;;3.17;;
82396;SDS011;72034;51.426;7.534;2023-08-06T15:53:25;4.43;;;3.10;;
82396;SDS011;72034;51.426;7.534;2023-08-06T15:55:51;4.13;;;3.72;;
82396;SDS011;72034;51.426;7.534;2023-08-06T15:58:16;4.35;;;3.30;;
82396;SDS011;72034;51.426;7.534;2023-08-06T16:00:41;6.20;;;3.53;;
82396;SDS011;72034;51.426;7.534;2023-08-06T16:03:06;4.60;;;3.15;;
82396;SDS011;72034;51.426;7.534;2023-08-06T16:05:32;4.93;;;3.38;;
82396;SDS011;72034;51.426;7.534;2023-08-06T16:07:57;4.65;;;3.15;;
82396;SDS011;72034;51.426;7.534;2023-08-06T16:10:22;5.32;;;3.25;;
82396;SDS011;72034;51.426;7.534;2023-08-06T16:12:47;3.80;;;3.35;;
82396;SDS011;72034;51.426;7.534;2023-08-06T16:15:13;4.47;;;3.25;;
82396;SDS011;72034;51.426;7.534;2023-08-06T16:17:43;3.78;;;3.13;;
82396;SDS011;72034;51.426;7.534;2023-08-06T16:20:09;3.65;;;2.90;;
82396;SDS011;72034;51.426;7.534;2023-08-06T16:22:35;5.60;;;3.40;;
82396;SDS011;72034;51.426;7.534;2023-08-06T16:25:00;5.80;;;3.53;;
82396;SDS011;72034;51.426;7.534;2023-08-06T16:27:25;4.57;;;3.17;;
82396;SDS011;72034;51.426;7.534;2023-08-06T16:29:50;4.18;;;2.97;;
82396;SDS011;72034;51.426;7.534;2023-08-06T16:32:16;4.30;;;2.92;;
82396;SDS011;72034;51.426;7.534;2023-08-06T16:34:41;4.70;;;3.13;;
82396;SDS011;72034;51.426;7.534;2023-08-06T16:37:06;4.85;;;3.42;;
82396;SDS011;72034;51.426;7.534;2023-08-06T16:39:32;3.20;;;2.90;;
82396;SDS011;72034;51.426;7.534;2023-08-06T16:41:58;3.70;;;3.25;;
82396;SDS011;72034;51.426;7.534;2023-08-06T16:44:24;3.88;;;3.05;;
82396;SDS011;72034;51.426;7.534;2023-08-06T16:46:49;4.80;;;3.47;;
82396;SDS011;72034;51.426;7.534;2023-08-06T16:49:15;3.80;;;3.00;;
82396;SDS011;72034;51.426;7.534;2023-08-06T16:51:40;4.57;;;3.15;;
82396;SDS011;72034;51.426;7.534;2023-08-06T16:54:05;4.45;;;3.05;;
82396;SDS011;72034;51.426;7.534;2023-08-06T16:56:31;3.95;;;2.97;;
82396;SDS011;72034;51.426;7.534;2023-08-06T16:58:56;5.13;;;3.40;;
82396;SDS011;72034;51.426;7.534;2023-08-06T17:01:21;3.80;;;2.90;;
82396;SDS011;72034;51.426;7.534;2023-08-06T17:03:47;4.25;;;3.47;;
82396;SDS011;72034;51.426;7.534;2023-08-06T17:06:13;5.85;;;3.10;;
82396;SDS011;72034;51.426;7.534;2023-08-06T17:08:40;3.55;;;3.25;;
82396;SDS011;72034;51.426;7.534;2023-08-06T17:11:07;3.53;;;3.17;;
82396;SDS011;72034;51.426;7.534;2023-08-06T17:13:33;3.90;;;3.60;;
82396;SDS011;72034;51.426;7.534;2023-08-06T17:15:58;6.05;;;3.60;;
82396;SDS011;72034;51.426;7.534;2023-08-06T17:18:24;3.75;;;3.38;;
82396;SDS011;72034;51.426;7.534;2023-08-06T17:20:49;4.25;;;3.58;;
82396;SDS011;72034;51.426;7.534;2023-08-06T17:23:15;6.40;;;3.67;;
82396;SDS011;72034;51.426;7.534;2023-08-06T17:25:41;4.03;;;3.63;;
82396;SDS011;72034;51.426;7.534;2023-08-06T17:28:07;5.38;;;3.63;;
82396;SDS011;72034;51.426;7.534;2023-08-06T17:30:32;4.97;;;3.55;;
82396;SDS011;72034;51.426;7.534;2023-08-06T17:32:57;3.85;;;3.55;;
82396;SDS011;72034;51.426;7.534;2023-08-06T17:35:23;4.10;;;3.60;;
82396;SDS011;72034;51.426;7.534;2023-08-06T17:37:48;4.38;;;3.90;;
82396;SDS011;72034;51.426;7.534;2023-08-06T17:40:13;3.92;;;3.50;;
82396;SDS011;72034;51.426;7.534;2023-08-06T17:42:39;4.75;;;3.97;;
82396;SDS011;72034;51.426;7.534;2023-08-06T17:45:04;4.20;;;3.78;;
82396;SDS011;72034;51.426;7.534;2023-08-06T17:47:30;6.15;;;3.90;;
82396;SDS011;72034;51.426;7.534;2023-08-06T17:49:55;4.65;;;4.03;;
82396;SDS011;72034;51.426;7.534;2023-08-06T17:52:20;5.15;;;4.00;;
82396;SDS011;72034;51.426;7.534;2023-08-06T17:54:46;4.53;;;4.05;;
82396;SDS011;72034;51.426;7.534;2023-08-06T17:57:11;5.05;;;4.18;;
82396;SDS011;72034;51.426;7.534;2023-08-06T17:59:37;4.47;;;3.90;;
82396;SDS011;72034;51.426;7.534;2023-08-06T18:02:02;4.07;;;3.75;;
82396;SDS011;72034;51.426;7.534;2023-08-06T18:04:28;4.88;;;3.95;;
82396;SDS011;72034;51.426;7.534;2023-08-06T18:06:54;4.15;;;3.80;;
82396;SDS011;72034;51.426;7.534;2023-08-06T18:09:19;5.93;;;4.03;;
82396;SDS011;72034;51.426;7.534;2023-08-06T18:11:44;6.47;;;4.32;;
82396;SDS011;72034;51.426;7.534;2023-08-06T18:14:10;5.00;;;4.50;;
82396;SDS011;72034;51.426;7.534;2023-08-06T18:16:35;4.50;;;4.10;;
82396;SDS011;72034;51.426;7.534;2023-08-06T18:19:00;6.65;;;4.45;;
82396;SDS011;72034;51.426;7.534;2023-08-06T18:21:26;6.20;;;5.07;;
82396;SDS011;72034;51.426;7.534;2023-08-06T18:23:51;6.05;;;5.45;;
82396;SDS011;72034;51.426;7.534;2023-08-06T18:26:16;7.03;;;4.88;;
82396;SDS011;72034;51.426;7.534;2023-08-06T18:28:42;7.40;;;5.28;;
82396;SDS011;72034;51.426;7.534;2023-08-06T18:31:09;7.35;;;6.15;;
82396;SDS011;72034;51.426;7.534;2023-08-06T18:33:36;8.00;;;5.32;;
82396;SDS011;72034;51.426;7.534;2023-08-06T18:36:02;6.10;;;5.50;;
82396;SDS011;72034;51.426;7.534;2023-08-06T18:38:28;5.53;;;5.00;;
82396;SDS011;72034;51.426;7.534;2023-08-06T18:40:56;5.55;;;4.93;;
82396;SDS011;72034;51.426;7.534;2023-08-06T18:43:22;7.03;;;4.78;;
82396;SDS011;72034;51.426;7.534;2023-08-06T18:45:47;5.68;;;4.88;;